Big Bear Station Historical Data
Daily Summary for January 10, 2019 Units:  English    Metric   Both
Next Day »
Daily Weekly Monthly Yearly Custom
  High: Low: Average:
Temperature: 46.6 °F 19.8 °F 28.7 °F
Dew Point: 26.9 °F 11.3 °F 17.5 °F
Humidity: 95% 25% 68%
Wind Speed: 3.2mph 0.0mph 0.4mph
Wind Gust: -999.0mph - -
Wind- - West
Pressure: 23.56 in 23.50 in -
Precipitation: 0.00 in    
Historical Graphs
 
 
Tabular Data for January 10, 2019
Time Temperature Dew Point Pressure Wind Wind Speed Wind Gust Humidity Rainfall Rate (Hourly)
00:02 23.2 °F 19.6 °F 23.53 in Calm   -999.0 mph 86% 0.00 in
00:17 22.8 °F 19.2 °F 23.53 in Calm   -999.0 mph 86% 0.00 in
00:32 22.8 °F 19.2 °F 23.53 in Calm   -999.0 mph 86% 0.00 in
00:47 22.5 °F 18.7 °F 23.53 in Calm   -999.0 mph 85% 0.00 in
01:02 23.0 °F 18.6 °F 23.53 in Calm   -999.0 mph 83% 0.00 in
01:18 22.5 °F 17.8 °F 23.53 in Calm   -999.0 mph 82% 0.00 in
01:33 22.5 °F 17.8 °F 23.53 in Calm   -999.0 mph 82% 0.00 in
01:48 22.8 °F 18.7 °F 23.54 in Calm   -999.0 mph 84% 0.00 in
02:03 22.8 °F 18.4 °F 23.54 in Calm   -999.0 mph 83% 0.00 in
02:18 22.3 °F 18.2 °F 23.54 in Calm   -999.0 mph 84% 0.00 in
02:34 22.5 °F 18.4 °F 23.53 in Calm   -999.0 mph 84% 0.00 in
02:49 22.6 °F 19.0 °F 23.53 in Calm   -999.0 mph 86% 0.00 in
03:04 24.1 °F 19.7 °F 23.53 in South 3.2 mph -999.0 mph 83% 0.00 in
03:19 23.2 °F 19.6 °F 23.52 in South 1.7 mph -999.0 mph 86% 0.00 in
03:34 23.4 °F 19.6 °F 23.52 in SSE 1.7 mph -999.0 mph 85% 0.00 in
03:50 22.8 °F 19.0 °F 23.52 in Calm   -999.0 mph 85% 0.00 in
04:05 23.2 °F 19.6 °F 23.51 in Calm   -999.0 mph 86% 0.00 in
04:20 22.5 °F 19.2 °F 23.51 in Calm   -999.0 mph 87% 0.00 in
04:35 22.8 °F 20.3 °F 23.51 in Calm   -999.0 mph 90% 0.00 in
04:51 22.1 °F 19.4 °F 23.51 in Calm   -999.0 mph 89% 0.00 in
05:06 22.1 °F 19.9 °F 23.51 in Calm   -999.0 mph 91% 0.00 in
05:21 21.7 °F 19.5 °F 23.51 in Calm   -999.0 mph 91% 0.00 in
05:36 21.6 °F 19.6 °F 23.51 in Calm   -999.0 mph 92% 0.00 in
05:51 21.4 °F 19.7 °F 23.52 in Calm   -999.0 mph 93% 0.00 in
06:07 21.4 °F 19.7 °F 23.52 in Calm   -999.0 mph 93% 0.00 in
06:22 21.0 °F 19.5 °F 23.52 in Calm   -999.0 mph 94% 0.00 in
06:37 20.7 °F 19.2 °F 23.52 in Calm   -999.0 mph 94% 0.00 in
06:52 20.8 °F 19.3 °F 23.53 in Calm   -999.0 mph 94% 0.00 in
07:07 20.7 °F 19.5 °F 23.54 in Calm   -999.0 mph 95% 0.00 in
07:23 21.0 °F 19.8 °F 23.54 in Calm   -999.0 mph 95% 0.00 in
07:38 20.8 °F 19.6 °F 23.54 in Calm   -999.0 mph 95% 0.00 in
07:53 20.8 °F 19.6 °F 23.54 in Calm   -999.0 mph 95% 0.00 in
08:08 21.2 °F 20.0 °F 23.54 in Calm   -999.0 mph 95% 0.00 in
08:23 21.4 °F 20.2 °F 23.54 in Calm   -999.0 mph 95% 0.00 in
08:39 22.1 °F 20.6 °F 23.55 in Calm   -999.0 mph 94% 0.00 in
08:54 22.5 °F 21.0 °F 23.55 in Calm   -999.0 mph 94% 0.00 in
09:09 23.7 °F 22.2 °F 23.56 in Calm   -999.0 mph 94% 0.00 in
09:24 25.2 °F 23.5 °F 23.56 in Calm   -999.0 mph 93% 0.00 in
09:39 26.8 °F 24.3 °F 23.56 in Calm   -999.0 mph 90% 0.00 in
09:55 28.8 °F 25.1 °F 23.56 in Calm   -999.0 mph 86% 0.00 in
10:10 31.1 °F 26.0 °F 23.56 in Calm   -999.0 mph 81% 0.00 in
10:25 32.7 °F 26.9 °F 23.56 in Calm   -999.0 mph 79% 0.00 in
10:40 39.2 °F 23.0 °F 23.55 in Calm   -999.0 mph 52% 0.00 in
10:56 41.2 °F 16.2 °F 23.54 in Calm   -999.0 mph 36% 0.00 in
11:11 43.3 °F 14.7 °F 23.54 in NNW 1.7 mph -999.0 mph 31% 0.00 in
11:26 45.1 °F 11.3 °F 23.53 in Calm   -999.0 mph 25% 0.00 in
11:41 43.9 °F 14.4 °F 23.53 in NW 2.7 mph -999.0 mph 30% 0.00 in
11:57 44.1 °F 16.1 °F 23.52 in NW 1.7 mph -999.0 mph 32% 0.00 in
12:12 45.1 °F 15.5 °F 23.51 in WNW 1.7 mph -999.0 mph 30% 0.00 in
12:27 46.6 °F 13.5 °F 23.51 in Calm   -999.0 mph 26% 0.00 in
12:42 45.7 °F 16.8 °F 23.50 in WNW 2.7 mph -999.0 mph 31% 0.00 in
12:57 43.2 °F 18.0 °F 23.51 in NW 3.2 mph -999.0 mph 36% 0.00 in
13:13 44.4 °F 15.6 °F 23.50 in WNW 2.2 mph -999.0 mph 31% 0.00 in
13:28 43.3 °F 16.1 °F 23.51 in North 2.2 mph -999.0 mph 33% 0.00 in
13:43 43.0 °F 15.1 °F 23.51 in NW 2.7 mph -999.0 mph 32% 0.00 in
13:58 43.5 °F 14.1 °F 23.51 in NW 2.2 mph -999.0 mph 30% 0.00 in
14:14 43.5 °F 17.6 °F 23.50 in Calm   -999.0 mph 35% 0.00 in
14:29 42.4 °F 17.3 °F 23.50 in WNW 1.1 mph -999.0 mph 36% 0.00 in
14:44 42.3 °F 16.6 °F 23.51 in Calm   -999.0 mph 35% 0.00 in
14:59 41.7 °F 14.7 °F 23.51 in Calm   -999.0 mph 33% 0.00 in
15:14 41.5 °F 15.9 °F 23.51 in Calm   -999.0 mph 35% 0.00 in
15:30 41.4 °F 13.7 °F 23.51 in WNW 1.7 mph -999.0 mph 32% 0.00 in
15:45 41.5 °F 16.5 °F 23.51 in Calm   -999.0 mph 36% 0.00 in
16:00 40.6 °F 16.3 °F 23.51 in Calm   -999.0 mph 37% 0.00 in
16:15 39.6 °F 14.8 °F 23.52 in Calm   -999.0 mph 36% 0.00 in
16:30 38.7 °F 17.6 °F 23.52 in Calm   -999.0 mph 42% 0.00 in
16:46 37.4 °F 20.4 °F 23.52 in Calm   -999.0 mph 50% 0.00 in
17:01 36.0 °F 18.2 °F 23.53 in SSE 1.7 mph -999.0 mph 48% 0.00 in
17:17 34.3 °F 20.2 °F 23.53 in Calm   -999.0 mph 56% 0.00 in
17:32 32.7 °F 19.1 °F 23.53 in Calm   -999.0 mph 57% 0.00 in
17:47 31.6 °F 15.1 °F 23.53 in Calm   -999.0 mph 50% 0.00 in
18:02 30.4 °F 13.0 °F 23.54 in Calm   -999.0 mph 48% 0.00 in
18:17 29.1 °F 15.3 °F 23.54 in Calm   -999.0 mph 56% 0.00 in
18:33 28.4 °F 15.1 °F 23.54 in Calm   -999.0 mph 57% 0.00 in
18:48 27.5 °F 14.3 °F 23.54 in Calm   -999.0 mph 57% 0.00 in
19:04 26.4 °F 14.0 °F 23.54 in Calm   -999.0 mph 59% 0.00 in
19:19 25.5 °F 14.3 °F 23.54 in Calm   -999.0 mph 62% 0.00 in
19:35 25.9 °F 13.9 °F 23.54 in Calm   -999.0 mph 60% 0.00 in
19:50 24.8 °F 14.7 °F 23.54 in Calm   -999.0 mph 65% 0.00 in
20:05 24.1 °F 15.4 °F 23.54 in Calm   -999.0 mph 69% 0.00 in
20:20 23.9 °F 15.5 °F 23.54 in Calm   -999.0 mph 70% 0.00 in
20:36 23.4 °F 16.0 °F 23.54 in Calm   -999.0 mph 73% 0.00 in
20:51 23.0 °F 16.9 °F 23.55 in Calm   -999.0 mph 77% 0.00 in
21:06 23.0 °F 14.3 °F 23.55 in Calm   -999.0 mph 69% 0.00 in
21:21 22.3 °F 14.3 °F 23.55 in Calm   -999.0 mph 71% 0.00 in
21:36 21.9 °F 13.6 °F 23.55 in Calm   -999.0 mph 70% 0.00 in
21:52 21.9 °F 13.6 °F 23.55 in Calm   -999.0 mph 70% 0.00 in
22:07 21.4 °F 13.5 °F 23.55 in Calm   -999.0 mph 71% 0.00 in
22:22 21.0 °F 12.7 °F 23.55 in Calm   -999.0 mph 70% 0.00 in
22:37 20.7 °F 13.1 °F 23.55 in Calm   -999.0 mph 72% 0.00 in
22:52 20.5 °F 13.8 °F 23.54 in Calm   -999.0 mph 75% 0.00 in
23:08 20.7 °F 14.3 °F 23.54 in Calm   -999.0 mph 76% 0.00 in
23:23 20.1 °F 14.6 °F 23.54 in Calm   -999.0 mph 79% 0.00 in
23:38 20.7 °F 14.9 °F 23.54 in Calm   -999.0 mph 78% 0.00 in
23:53 19.8 °F 14.6 °F 23.54 in Calm   -999.0 mph 80% 0.00 in
Big Bear CA Weather